Terminal Aerodrome Forecast
Issued by NWS

Home | Current Version | Previous Version | Text Only | Print | Product List | Glossary On
Versions: 1 2 3 4 5 6 7 8 9 10 11 12 13 14 15 16 17
000
FTUS41 KBTV 251728
TAFRUT
TAF
KRUT 251728Z 2518/2618 13015G26KT P6SM BKN035
     FM252100 15015G25KT P6SM VCSH BKN030
     FM252300 22012G22KT 5SM -SHRA BR OVC030
      TEMPO 2600/2604 2SM +SHRA BR OVC010
     FM260400 25010KT 6SM -SHRA BR OVC020
     FM260800 28010KT P6SM OVC030
     FM261600 29010G20KT P6SM BKN030=

USA.gov is the U.S. government's official web portal to all federal, state and local government web resources and services.